Time;durP1;ratioP1;P1;durP2;ratioP2;P2;SDS_P1;SDS_P2;PMS_P1;PMS_P2;Temp;Humidity;BMP_temperature;BMP_pressure;BME280_temperature;BME280_humidity;BME280_pressure;Samples;Min_cycle;Max_cycle;Signal;HPM_P1;HPM_P2
2023/12/18 00:00:10;;;;;;;1.70;0.50;;;24.60;37.40;;;;;;5071199;28;20036;-67
2023/12/18 00:02:36;;;;;;;1.13;0.43;;;24.60;37.20;;;;;;5071219;28;20115;-67
2023/12/18 00:05:02;;;;;;;2.72;0.60;;;24.70;37.20;;;;;;5071294;28;20542;-67
2023/12/18 00:07:27;;;;;;;1.85;0.70;;;24.60;37.10;;;;;;5070971;28;20041;-67
2023/12/18 00:09:53;;;;;;;2.40;0.68;;;24.70;37.20;;;;;;5072225;28;20051;-66
2023/12/18 00:12:18;;;;;;;1.25;0.50;;;24.70;37.10;;;;;;5070778;28;20046;-67
2023/12/18 00:14:44;;;;;;;0.85;0.40;;;24.80;37.00;;;;;;5071165;28;20040;-67
2023/12/18 00:17:10;;;;;;;1.52;0.60;;;24.80;37.00;;;;;;5071085;28;20032;-67
2023/12/18 00:19:35;;;;;;;1.42;0.50;;;24.80;36.90;;;;;;5070726;28;20076;-67
2023/12/18 00:22:01;;;;;;;1.17;0.38;;;24.80;36.90;;;;;;5071081;28;20039;-67
2023/12/18 00:24:27;;;;;;;0.85;0.32;;;24.90;37.00;;;;;;5072026;28;20540;-67
2023/12/18 00:26:52;;;;;;;1.35;0.40;;;24.90;37.00;;;;;;5071927;28;20586;-67
2023/12/18 00:29:18;;;;;;;1.42;0.40;;;24.90;36.90;;;;;;5072159;28;20048;-68
2023/12/18 00:31:43;;;;;;;1.13;0.60;;;25.00;36.80;;;;;;5070728;28;20131;-67
2023/12/18 00:34:09;;;;;;;1.70;0.65;;;25.00;36.80;;;;;;5070688;28;20048;-67
2023/12/18 00:36:37;;;;;;;1.67;0.55;;;25.00;36.70;;;;;;5071889;28;20037;-67
2023/12/18 00:39:05;;;;;;;1.63;0.50;;;25.00;36.80;;;;;;5071786;28;20412;-67
2023/12/18 00:41:32;;;;;;;1.00;0.40;;;25.00;36.70;;;;;;5070803;28;20387;-67
2023/12/18 00:43:58;;;;;;;3.05;0.38;;;25.00;36.60;;;;;;5070787;28;20045;-67
2023/12/18 00:46:25;;;;;;;1.52;0.40;;;25.10;36.60;;;;;;5071000;28;20564;-67
2023/12/18 00:48:51;;;;;;;1.60;0.50;;;25.20;36.60;;;;;;5070616;28;20060;-67
2023/12/18 00:51:17;;;;;;;0.80;0.40;;;25.20;36.60;;;;;;5070855;28;20475;-67
2023/12/18 00:53:42;;;;;;;1.80;0.60;;;25.20;36.70;;;;;;5070584;28;20533;-67
2023/12/18 00:56:08;;;;;;;0.88;0.40;;;25.20;36.60;;;;;;5070707;28;20047;-67
2023/12/18 00:58:34;;;;;;;1.30;0.52;;;25.30;36.60;;;;;;5070309;28;20098;-67
2023/12/18 01:00:59;;;;;;;1.52;0.52;;;25.30;36.40;;;;;;5071585;28;20028;-67
2023/12/18 01:03:25;;;;;;;1.48;0.47;;;25.40;36.40;;;;;;5070338;28;20040;-67
2023/12/18 01:05:51;;;;;;;1.27;0.40;;;25.40;36.40;;;;;;5070614;28;20047;-67
2023/12/18 01:08:16;;;;;;;1.00;0.50;;;25.30;36.40;;;;;;5070631;28;20036;-67
2023/12/18 01:10:45;;;;;;;2.10;0.50;;;25.30;36.40;;;;;;5070516;28;20540;-67
2023/12/18 01:13:10;;;;;;;1.33;0.50;;;25.50;36.60;;;;;;5070416;28;20120;-67
2023/12/18 01:15:36;;;;;;;0.93;0.47;;;25.40;36.40;;;;;;5070130;28;20128;-67
2023/12/18 01:18:05;;;;;;;1.95;0.43;;;25.40;36.40;;;;;;5071435;28;20086;-67
2023/12/18 01:20:30;;;;;;;0.98;0.30;;;25.50;36.40;;;;;;5070081;28;20040;-67
2023/12/18 01:22:56;;;;;;;1.13;0.60;;;25.50;36.30;;;;;;5070128;28;20051;-67
2023/12/18 01:25:24;;;;;;;1.13;0.40;;;25.40;36.40;;;;;;5070099;28;20032;-67
2023/12/18 01:27:50;;;;;;;1.20;0.50;;;25.20;36.50;;;;;;5069966;28;20052;-67
2023/12/18 01:30:15;;;;;;;0.70;0.30;;;25.30;36.80;;;;;;5070270;28;20033;-67
2023/12/18 01:32:42;;;;;;;1.88;0.60;;;25.20;36.80;;;;;;5070372;28;20122;-67
2023/12/18 01:35:08;;;;;;;1.80;0.68;;;25.20;36.80;;;;;;5071348;28;20048;-67
2023/12/18 01:37:34;;;;;;;1.27;0.60;;;25.30;36.70;;;;;;5070161;28;20048;-67
2023/12/18 01:39:59;;;;;;;2.03;0.40;;;25.40;36.60;;;;;;5069702;28;20056;-67
2023/12/18 01:42:25;;;;;;;1.90;0.70;;;25.50;36.50;;;;;;5070105;28;20383;-67
2023/12/18 01:44:53;;;;;;;0.88;0.38;;;25.60;36.40;;;;;;5070273;28;20040;-67
2023/12/18 01:47:19;;;;;;;2.55;0.95;;;25.60;36.30;;;;;;5071173;28;20064;-67
2023/12/18 01:49:45;;;;;;;1.23;0.38;;;25.60;36.30;;;;;;5073728;28;20047;-67
2023/12/18 01:52:11;;;;;;;1.08;0.30;;;25.70;36.20;;;;;;5074770;28;20055;-66
2023/12/18 01:54:37;;;;;;;2.22;0.40;;;25.70;36.20;;;;;;5073718;28;20036;-67
2023/12/18 01:57:04;;;;;;;1.20;0.40;;;25.70;36.10;;;;;;5073623;28;20058;-67
2023/12/18 01:59:31;;;;;;;0.80;0.43;;;25.70;36.20;;;;;;5073336;28;20691;-68
2023/12/18 02:01:57;;;;;;;1.15;0.40;;;25.70;36.20;;;;;;5073200;28;20403;-67
2023/12/18 02:04:23;;;;;;;0.85;0.38;;;25.70;36.20;;;;;;5073342;28;20123;-67
2023/12/18 02:06:50;;;;;;;1.15;0.43;;;25.80;36.20;;;;;;5073316;28;20116;-66
2023/12/18 02:09:15;;;;;;;0.70;0.30;;;25.70;36.20;;;;;;5075086;28;20090;-67
2023/12/18 02:11:45;;;;;;;1.75;0.50;;;25.80;36.20;;;;;;5074752;28;20040;-67
2023/12/18 02:14:11;;;;;;;1.65;0.40;;;25.80;36.20;;;;;;5073622;28;20040;-67
2023/12/18 02:16:40;;;;;;;1.50;0.50;;;25.80;36.20;;;;;;5074557;28;20032;-67
2023/12/18 02:19:19;;;;;;;1.42;0.50;;;25.80;36.20;;;;;;5073131;28;20032;-67
2023/12/18 02:21:48;;;;;;;1.70;0.40;;;25.80;36.20;;;;;;5074566;28;20063;-67
2023/12/18 02:24:15;;;;;;;0.70;0.30;;;25.90;36.20;;;;;;5072723;28;20036;-67
2023/12/18 02:26:41;;;;;;;1.05;0.30;;;25.90;36.20;;;;;;5072883;28;20047;-67
2023/12/18 02:29:06;;;;;;;1.15;0.40;;;25.90;36.20;;;;;;5072917;28;20438;-67
2023/12/18 02:31:35;;;;;;;1.95;0.70;;;25.90;36.20;;;;;;5072748;28;20047;-67
2023/12/18 02:34:00;;;;;;;1.23;0.30;;;25.90;36.20;;;;;;5072757;28;20068;-67
2023/12/18 02:36:26;;;;;;;0.98;0.35;;;25.90;36.20;;;;;;5073006;28;20130;-66
2023/12/18 02:38:51;;;;;;;1.00;0.50;;;25.90;36.20;;;;;;5073770;28;20028;-67
2023/12/18 02:41:17;;;;;;;2.42;0.50;;;25.90;36.30;;;;;;5073851;28;20092;-67
2023/12/18 02:43:45;;;;;;;1.20;0.38;;;25.90;36.20;;;;;;5072823;28;20124;-67
2023/12/18 02:46:11;;;;;;;1.75;0.47;;;25.90;36.20;;;;;;5072588;28;20123;-67
2023/12/18 02:48:40;;;;;;;1.10;0.40;;;26.00;36.20;;;;;;5072235;28;20155;-67
2023/12/18 02:51:06;;;;;;;0.98;0.55;;;26.00;36.20;;;;;;5072335;28;20123;-67
2023/12/18 02:53:31;;;;;;;2.05;0.30;;;26.00;36.10;;;;;;5072784;28;20124;-67
2023/12/18 02:55:57;;;;;;;1.48;0.60;;;26.00;36.10;;;;;;5072976;28;20383;-67
2023/12/18 02:58:24;;;;;;;1.40;0.40;;;26.00;36.10;;;;;;5072406;28;20039;-67
2023/12/18 03:00:49;;;;;;;1.35;0.47;;;26.10;36.10;;;;;;5072425;28;20041;-67
2023/12/18 03:03:15;;;;;;;0.70;0.30;;;26.00;36.10;;;;;;5073542;28;20495;-67
2023/12/18 03:05:41;;;;;;;0.93;0.35;;;26.00;36.10;;;;;;5072194;28;20539;-67
2023/12/18 03:08:07;;;;;;;1.20;0.50;;;26.10;36.10;;;;;;5072213;28;20087;-67
2023/12/18 03:10:33;;;;;;;1.20;0.40;;;26.20;36.00;;;;;;5072274;28;20124;-67
2023/12/18 03:12:59;;;;;;;1.33;0.50;;;26.30;35.80;;;;;;5071882;28;20055;-67
2023/12/18 03:15:24;;;;;;;3.00;0.43;;;26.40;35.70;;;;;;5072264;28;20070;-67
2023/12/18 03:17:50;;;;;;;1.13;0.47;;;26.60;35.50;;;;;;5073208;28;20495;-67
2023/12/18 03:20:16;;;;;;;0.70;0.40;;;26.70;35.40;;;;;;5072943;28;20365;-67
2023/12/18 03:22:44;;;;;;;1.55;0.32;;;26.80;35.20;;;;;;5073218;28;20043;-67
2023/12/18 03:25:10;;;;;;;1.05;0.50;;;26.90;35.00;;;;;;5071679;28;20086;-67
2023/12/18 03:27:36;;;;;;;1.20;0.45;;;27.10;34.90;;;;;;5072926;28;20033;-67
2023/12/18 03:30:01;;;;;;;1.33;0.43;;;27.10;34.80;;;;;;5071838;28;20052;-67
2023/12/18 03:32:27;;;;;;;0.95;0.35;;;27.20;34.70;;;;;;5071842;28;20373;-67
2023/12/18 03:34:52;;;;;;;1.13;0.38;;;27.30;34.60;;;;;;5071472;28;20040;-67
2023/12/18 03:37:18;;;;;;;1.25;0.65;;;27.30;34.60;;;;;;5073028;28;20106;-67
2023/12/18 03:39:44;;;;;;;1.33;0.30;;;27.20;34.60;;;;;;5070613;28;20040;-67
2023/12/18 03:42:09;;;;;;;1.45;0.32;;;27.20;34.80;;;;;;5071170;28;20118;-68
2023/12/18 03:44:35;;;;;;;1.25;0.30;;;27.10;34.80;;;;;;5054815;28;20045;-67
2023/12/18 03:47:02;;;;;;;1.10;0.40;;;27.00;34.90;;;;;;5071298;28;20048;-67
2023/12/18 03:49:28;;;;;;;0.90;0.40;;;26.90;35.00;;;;;;5071244;28;20048;-67
2023/12/18 03:51:54;;;;;;;0.80;0.38;;;26.80;35.20;;;;;;5072484;28;20044;-67
2023/12/18 03:54:19;;;;;;;1.40;0.40;;;26.70;35.30;;;;;;5072467;28;20032;-67
2023/12/18 03:56:45;;;;;;;0.93;0.30;;;26.60;35.40;;;;;;5072364;28;20032;-67
2023/12/18 03:59:10;;;;;;;1.35;0.40;;;26.50;35.60;;;;;;5054254;28;20048;-67
2023/12/18 04:01:36;;;;;;;1.25;0.50;;;26.40;35.70;;;;;;5071329;28;20040;-67
2023/12/18 04:04:02;;;;;;;1.80;0.50;;;26.30;35.80;;;;;;5071349;28;20036;-67
2023/12/18 04:06:28;;;;;;;1.77;0.30;;;26.30;35.90;;;;;;5072229;28;20049;-67
2023/12/18 04:08:54;;;;;;;0.80;0.30;;;26.30;36.00;;;;;;5070965;28;20063;-67
2023/12/18 04:11:21;;;;;;;1.35;0.40;;;26.20;35.90;;;;;;5071802;28;20036;-67
2023/12/18 04:13:48;;;;;;;0.60;0.30;;;26.20;35.90;;;;;;5072102;28;20098;-67
2023/12/18 04:16:14;;;;;;;1.13;0.40;;;26.20;35.90;;;;;;5070836;28;20048;-66
2023/12/18 04:18:39;;;;;;;1.25;0.60;;;26.30;35.90;;;;;;5070780;28;20037;-67
2023/12/18 04:21:05;;;;;;;0.80;0.30;;;26.30;35.90;;;;;;5070765;28;20044;-67
2023/12/18 04:23:31;;;;;;;1.08;0.30;;;26.40;35.80;;;;;;5070801;28;20391;-67
2023/12/18 04:25:59;;;;;;;1.02;0.50;;;26.40;35.80;;;;;;5070973;28;20032;-67
2023/12/18 04:28:25;;;;;;;1.00;0.40;;;26.40;35.60;;;;;;5071090;28;20067;-67
2023/12/18 04:30:51;;;;;;;0.95;0.40;;;26.50;35.70;;;;;;5072207;28;20489;-67
2023/12/18 04:33:16;;;;;;;1.63;0.40;;;26.50;35.60;;;;;;5070830;28;20498;-67
2023/12/18 04:35:42;;;;;;;1.02;0.40;;;26.50;35.60;;;;;;5070869;28;20036;-67
2023/12/18 04:38:10;;;;;;;0.90;0.30;;;26.50;35.60;;;;;;5070794;28;20033;-67
2023/12/18 04:40:36;;;;;;;0.50;0.30;;;26.50;35.50;;;;;;5070317;28;20492;-66
2023/12/18 04:43:01;;;;;;;1.48;0.30;;;26.50;35.60;;;;;;5071764;28;20263;-67
2023/12/18 04:45:27;;;;;;;1.48;0.50;;;26.50;35.70;;;;;;5070799;28;20507;-67
2023/12/18 04:47:53;;;;;;;1.10;0.30;;;26.40;35.70;;;;;;5070860;28;20464;-67
2023/12/18 04:50:19;;;;;;;1.65;0.70;;;26.40;35.80;;;;;;5070576;28;20472;-67
2023/12/18 04:52:47;;;;;;;0.90;0.52;;;26.40;35.90;;;;;;5070481;28;20051;-67
2023/12/18 04:55:15;;;;;;;0.90;0.30;;;26.30;36.00;;;;;;5070220;28;20052;-67
2023/12/18 04:57:41;;;;;;;1.17;0.50;;;26.30;36.10;;;;;;5071307;28;20085;-67
2023/12/18 05:00:07;;;;;;;1.10;0.40;;;26.20;36.20;;;;;;5070502;28;20487;-67
2023/12/18 05:02:33;;;;;;;0.73;0.30;;;26.10;36.20;;;;;;5071613;28;20041;-68
2023/12/18 05:04:58;;;;;;;1.52;0.50;;;26.00;36.30;;;;;;5070645;28;20047;-68
2023/12/18 05:07:27;;;;;;;1.30;0.40;;;26.00;36.40;;;;;;5071548;28;20472;-67
2023/12/18 05:09:53;;;;;;;1.65;0.40;;;25.90;36.50;;;;;;5070556;28;20041;-66
2023/12/18 05:12:18;;;;;;;1.08;0.30;;;25.90;36.60;;;;;;5070190;28;20173;-67
2023/12/18 05:14:44;;;;;;;1.00;0.40;;;25.90;36.60;;;;;;5071599;28;20040;-67
2023/12/18 05:17:10;;;;;;;1.08;0.47;;;25.90;36.70;;;;;;5070464;28;20040;-67
2023/12/18 05:19:36;;;;;;;1.50;0.30;;;25.90;36.70;;;;;;5070142;28;20059;-67
2023/12/18 05:22:02;;;;;;;1.73;0.38;;;25.90;36.60;;;;;;5071406;28;20036;-66
2023/12/18 05:24:27;;;;;;;1.85;0.30;;;25.90;36.60;;;;;;5074389;28;20477;-67
2023/12/18 05:26:53;;;;;;;1.10;0.30;;;25.90;36.60;;;;;;5074324;28;20071;-67
2023/12/18 05:29:18;;;;;;;1.65;0.40;;;25.90;36.60;;;;;;5074102;28;20487;-67
2023/12/18 05:31:44;;;;;;;1.45;0.40;;;25.90;36.60;;;;;;5073869;28;20033;-67
2023/12/18 05:34:12;;;;;;;1.52;0.30;;;25.90;36.60;;;;;;5073770;28;20074;-67
2023/12/18 05:36:38;;;;;;;1.00;0.38;;;25.90;36.60;;;;;;5074087;28;20052;-67
2023/12/18 05:39:04;;;;;;;1.38;0.55;;;25.90;36.60;;;;;;5073615;28;20534;-67
2023/12/18 05:41:29;;;;;;;0.70;0.20;;;25.90;36.60;;;;;;5073646;28;20048;-67
2023/12/18 05:43:55;;;;;;;1.40;0.40;;;26.00;36.70;;;;;;5073808;28;20041;-67
2023/12/18 05:46:21;;;;;;;0.82;0.30;;;26.00;36.70;;;;;;5074805;28;20036;-67
2023/12/18 05:48:46;;;;;;;1.95;0.30;;;26.00;36.70;;;;;;5073819;28;20127;-68
2023/12/18 05:51:27;;;;;;;1.00;0.30;;;26.00;36.60;;;;;;5073553;28;20540;-67
2023/12/18 05:53:52;;;;;;;0.82;0.30;;;25.90;36.70;;;;;;5073497;28;20116;-67
2023/12/18 05:56:18;;;;;;;1.10;0.30;;;25.90;36.60;;;;;;5073503;28;20120;-67
2023/12/18 05:58:44;;;;;;;1.05;0.40;;;25.90;36.70;;;;;;5075043;28;20148;-66
2023/12/18 06:01:10;;;;;;;0.68;0.22;;;25.90;36.60;;;;;;5073390;28;20099;-67
2023/12/18 06:03:36;;;;;;;1.20;0.30;;;25.90;36.60;;;;;;5074432;28;20080;-67
2023/12/18 06:06:01;;;;;;;1.98;0.55;;;25.90;36.70;;;;;;5073311;28;20032;-67
2023/12/18 06:08:27;;;;;;;1.45;0.30;;;25.90;36.80;;;;;;5074319;28;20043;-67
2023/12/18 06:10:53;;;;;;;1.15;0.30;;;25.80;36.80;;;;;;5073404;28;20044;-67
2023/12/18 06:13:18;;;;;;;1.05;0.20;;;25.80;36.80;;;;;;5056409;28;20119;-67
2023/12/18 06:15:44;;;;;;;0.85;0.30;;;25.80;36.90;;;;;;5073280;28;20137;-67
2023/12/18 06:18:09;;;;;;;0.80;0.30;;;25.80;36.90;;;;;;5073223;28;20044;-67
2023/12/18 06:20:35;;;;;;;0.80;0.40;;;25.80;37.00;;;;;;5072906;28;20072;-67
2023/12/18 06:23:01;;;;;;;1.15;0.50;;;25.70;37.00;;;;;;5073218;28;20443;-67
2023/12/18 06:25:26;;;;;;;1.05;0.40;;;25.60;37.00;;;;;;5073218;28;20115;-67
2023/12/18 06:27:52;;;;;;;0.55;0.30;;;25.60;37.10;;;;;;5073310;28;20491;-67
2023/12/18 06:30:17;;;;;;;1.23;0.30;;;25.60;37.10;;;;;;5072539;28;20080;-67
2023/12/18 06:32:43;;;;;;;2.60;0.73;;;25.60;37.20;;;;;;5072676;28;20063;-67
2023/12/18 06:35:09;;;;;;;2.17;1.33;;;25.50;37.50;;;;;;5072528;28;20054;-68
2023/12/18 06:37:34;;;;;;;1.95;1.00;;;25.10;37.90;;;;;;5070784;28;20036;-70
2023/12/18 06:40:01;;;;;;;4.95;1.00;;;24.50;38.80;;;;;;5071289;28;20075;-66
2023/12/18 06:42:29;;;;;;;5.00;1.40;;;24.00;39.90;;;;;;5070544;28;20124;-67
2023/12/18 06:44:54;;;;;;;7.43;3.72;;;23.70;40.70;;;;;;5070833;28;20548;-67
2023/12/18 06:47:20;;;;;;;4.72;1.95;;;23.40;40.60;;;;;;5071072;28;20040;-68
2023/12/18 06:49:46;;;;;;;3.97;1.42;;;23.20;40.80;;;;;;5072201;28;20068;-67
2023/12/18 06:52:13;;;;;;;3.25;1.70;;;22.90;41.40;;;;;;5069907;28;20543;-67
2023/12/18 06:54:39;;;;;;;5.50;2.30;;;22.70;41.80;;;;;;5068202;28;20036;-67
2023/12/18 06:57:05;;;;;;;2.97;1.85;;;22.50;42.20;;;;;;5070502;28;20052;-68
2023/12/18 06:59:31;;;;;;;3.78;1.42;;;22.40;42.40;;;;;;5069224;28;22315;-68
2023/12/18 07:01:56;;;;;;;2.00;0.93;;;22.20;42.80;;;;;;5068563;28;20492;-68
2023/12/18 07:04:22;;;;;;;4.05;1.58;;;22.00;43.30;;;;;;5067163;28;20127;-68
2023/12/18 07:06:48;;;;;;;5.63;3.75;;;21.70;43.60;;;;;;5066438;28;20484;-67
2023/12/18 07:09:13;;;;;;;4.85;1.85;;;21.50;43.70;;;;;;5074516;28;20134;-68
2023/12/18 07:11:39;;;;;;;2.20;1.13;;;21.40;43.80;;;;;;5091180;28;20061;-68
2023/12/18 07:14:05;;;;;;;3.05;1.08;;;21.30;44.20;;;;;;5069915;28;20037;-68
2023/12/18 07:16:33;;;;;;;4.03;1.30;;;21.20;44.60;;;;;;5068394;28;20383;-67
2023/12/18 07:18:59;;;;;;;3.20;1.15;;;21.10;44.80;;;;;;5066805;28;20029;-67
2023/12/18 07:21:25;;;;;;;3.17;1.00;;;21.00;45.00;;;;;;5067401;28;20048;-68
2023/12/18 07:23:50;;;;;;;3.45;1.38;;;20.90;45.20;;;;;;5068624;28;20548;-68
2023/12/18 07:26:16;;;;;;;2.97;1.27;;;20.80;45.50;;;;;;5068975;28;20109;-68
2023/12/18 07:28:42;;;;;;;1.35;0.80;;;20.70;45.70;;;;;;5044645;28;20369;-66
2023/12/18 07:31:08;;;;;;;3.47;0.95;;;20.60;45.80;;;;;;5047117;28;20048;-74
2023/12/18 07:33:35;;;;;;;7.10;1.70;;;20.50;46.10;;;;;;5052943;28;20037;-67
2023/12/18 07:36:02;;;;;;;2.75;1.38;;;20.50;46.40;;;;;;5054397;28;20047;-68
2023/12/18 07:38:29;;;;;;;4.90;1.85;;;20.40;46.60;;;;;;5053685;28;20085;-69
2023/12/18 07:40:55;;;;;;;7.00;2.40;;;20.30;46.70;;;;;;5052278;28;20087;-69
2023/12/18 07:43:20;;;;;;;8.52;2.75;;;20.20;46.80;;;;;;5058507;28;20071;-69
2023/12/18 07:45:46;;;;;;;9.15;2.60;;;20.10;47.00;;;;;;5055919;28;20465;-69
2023/12/18 07:48:12;;;;;;;5.57;2.47;;;20.00;47.30;;;;;;5056653;28;20036;-69
2023/12/18 07:50:38;;;;;;;4.75;2.28;;;20.00;47.60;;;;;;5056466;28;20086;-69
2023/12/18 07:53:03;;;;;;;4.63;2.08;;;19.90;47.60;;;;;;5061691;28;20546;-69
2023/12/18 07:55:29;;;;;;;7.50;2.22;;;19.90;47.80;;;;;;5054992;28;20084;-71
2023/12/18 07:57:55;;;;;;;8.63;1.63;;;19.80;48.10;;;;;;5048787;28;20045;-69
2023/12/18 08:00:20;;;;;;;6.38;1.77;;;19.80;48.30;;;;;;5047050;28;20128;-71
2023/12/18 08:02:46;;;;;;;2.55;1.30;;;19.80;48.40;;;;;;5083289;28;20151;-69
2023/12/18 08:05:12;;;;;;;5.32;2.17;;;19.70;48.60;;;;;;5045906;28;20045;-69
2023/12/18 08:07:37;;;;;;;6.53;1.88;;;19.60;48.70;;;;;;5050978;28;20047;-69
2023/12/18 08:10:03;;;;;;;4.72;1.70;;;19.60;49.10;;;;;;5050980;28;20045;-73
2023/12/18 08:12:29;;;;;;;6.82;1.60;;;19.60;49.30;;;;;;5048585;28;20472;-70
2023/12/18 08:14:54;;;;;;;4.82;1.40;;;19.60;49.50;;;;;;5081645;28;20054;-70
2023/12/18 08:17:20;;;;;;;8.30;2.45;;;19.60;49.50;;;;;;5048328;28;20338;-71
2023/12/18 08:19:47;;;;;;;2.78;1.30;;;19.70;49.60;;;;;;5053131;28;20065;-70
2023/12/18 08:22:13;;;;;;;4.43;1.05;;;19.80;49.60;;;;;;5053042;28;20037;-69
2023/12/18 08:24:41;;;;;;;4.15;1.00;;;19.90;49.50;;;;;;5055390;28;20082;-72
2023/12/18 08:27:07;;;;;;;4.35;1.42;;;20.00;49.40;;;;;;5055793;28;20039;-69
2023/12/18 08:29:38;;;;;;;2.75;1.20;;;20.00;49.20;;;;;;5051141;28;20045;-69
2023/12/18 08:32:04;;;;;;;3.35;1.13;;;20.10;49.20;;;;;;5056561;28;20032;-74
2023/12/18 08:34:32;;;;;;;5.88;4.70;;;20.00;49.20;;;;;;5051306;28;20498;-71
2023/12/18 08:36:57;;;;;;;7.90;5.25;;;20.00;48.90;;;;;;5048921;28;20040;-73
2023/12/18 08:39:23;;;;;;;4.20;3.65;;;19.90;48.50;;;;;;5080624;28;20091;-79
2023/12/18 08:41:49;;;;;;;6.82;3.45;;;19.80;48.40;;;;;;5052173;28;20633;-72
2023/12/18 08:44:15;;;;;;;3.92;2.15;;;19.80;48.70;;;;;;5056196;28;20050;-75
2023/12/18 08:46:40;;;;;;;6.60;2.55;;;19.70;49.00;;;;;;5050963;28;20551;-70
2023/12/18 08:49:06;;;;;;;6.50;2.42;;;19.70;49.40;;;;;;5051986;28;20037;-71
2023/12/18 08:51:32;;;;;;;5.28;2.28;;;19.60;49.60;;;;;;5048598;28;20033;-72
2023/12/18 08:53:57;;;;;;;2.45;1.77;;;19.60;49.90;;;;;;5052000;28;20041;-74
2023/12/18 08:56:24;;;;;;;4.80;1.70;;;19.50;50.00;;;;;;5056740;28;20040;-70
2023/12/18 08:58:52;;;;;;;3.38;1.92;;;19.50;50.20;;;;;;5057218;28;20597;-69
2023/12/18 09:01:18;;;;;;;4.70;1.80;;;19.40;50.30;;;;;;5056140;28;20036;-69
2023/12/18 09:03:46;;;;;;;5.25;1.85;;;19.40;50.50;;;;;;5054575;28;20041;-69
2023/12/18 09:06:12;;;;;;;4.43;1.52;;;19.30;50.50;;;;;;5054809;28;20062;-69
2023/12/18 09:08:40;;;;;;;3.85;1.45;;;19.30;50.50;;;;;;5058683;28;20377;-68
2023/12/18 09:11:07;;;;;;;4.93;1.60;;;19.30;50.50;;;;;;5056122;28;20064;-70
2023/12/18 09:13:35;;;;;;;4.07;1.48;;;19.30;50.50;;;;;;5053574;28;20651;-69
2023/12/18 09:16:03;;;;;;;3.67;1.05;;;19.30;50.50;;;;;;5056841;28;20174;-70
2023/12/18 09:18:28;;;;;;;4.82;1.45;;;19.30;50.50;;;;;;5055817;28;20128;-68
2023/12/18 09:21:00;;;;;;;4.32;0.93;;;19.30;50.40;;;;;;5053739;28;20131;-68
2023/12/18 09:23:29;;;;;;;4.53;1.27;;;19.40;50.30;;;;;;5059194;28;20037;-68
2023/12/18 09:25:55;;;;;;;3.35;1.15;;;19.40;50.20;;;;;;5054249;28;20083;-69
2023/12/18 09:28:20;;;;;;;3.85;1.50;;;19.40;50.00;;;;;;5087180;28;20037;-69
2023/12/18 09:30:46;;;;;;;5.90;1.50;;;19.50;49.90;;;;;;5053184;28;20073;-70
2023/12/18 09:33:12;;;;;;;7.75;1.50;;;19.50;50.00;;;;;;5057450;28;20052;-69
2023/12/18 09:35:37;;;;;;;3.65;1.30;;;19.50;50.00;;;;;;5049223;28;20052;-68
2023/12/18 09:38:04;;;;;;;10.20;3.35;;;19.60;50.00;;;;;;5053784;28;20041;-68
2023/12/18 09:40:30;;;;;;;8.82;3.58;;;19.70;50.00;;;;;;5051668;28;20056;-69
2023/12/18 09:42:55;;;;;;;7.97;3.83;;;19.70;50.10;;;;;;5058372;28;20489;-70
2023/12/18 09:45:23;;;;;;;6.53;4.18;;;19.60;50.00;;;;;;5051449;28;20104;-69
2023/12/18 09:47:49;;;;;;;15.32;5.65;;;19.60;50.00;;;;;;5058628;28;20052;-68
2023/12/18 09:50:18;;;;;;;9.85;3.78;;;19.60;49.80;;;;;;5056995;28;20044;-68
2023/12/18 09:52:52;;;;;;;7.60;3.05;;;19.50;49.90;;;;;;5086746;28;20098;-71
2023/12/18 09:55:19;;;;;;;5.03;2.47;;;19.50;50.00;;;;;;5049330;28;20307;-69
2023/12/18 09:57:45;;;;;;;6.10;2.40;;;19.50;50.00;;;;;;5050661;28;20036;-67
2023/12/18 10:00:15;;;;;;;5.28;2.45;;;19.50;50.00;;;;;;5053574;28;20413;-72
2023/12/18 10:02:44;;;;;;;7.13;2.47;;;19.50;49.90;;;;;;5055012;28;20251;-68
2023/12/18 10:05:10;;;;;;;4.57;1.48;;;19.60;50.00;;;;;;5061981;28;20082;-71
2023/12/18 10:07:36;;;;;;;5.78;1.90;;;19.60;49.90;;;;;;5052160;28;20063;-69
2023/12/18 10:10:02;;;;;;;6.50;2.40;;;19.60;49.90;;;;;;5056749;28;20044;-68
2023/12/18 10:12:27;;;;;;;6.53;1.90;;;19.60;49.90;;;;;;5049033;28;20054;-68
2023/12/18 10:14:53;;;;;;;7.55;1.70;;;19.50;49.90;;;;;;5049747;28;20929;-67
2023/12/18 10:17:19;;;;;;;4.25;1.75;;;19.50;50.00;;;;;;5085043;28;20075;-67
2023/12/18 10:19:44;;;;;;;4.10;2.72;;;19.50;50.30;;;;;;5055607;28;20147;-67
2023/12/18 10:22:10;;;;;;;5.45;2.10;;;19.50;50.50;;;;;;5053107;28;20041;-69
2023/12/18 10:24:43;;;;;;;9.20;2.45;;;19.50;50.80;;;;;;5057838;28;20074;-67
2023/12/18 10:27:10;;;;;;;6.22;2.50;;;19.40;51.00;;;;;;5053511;28;20056;-69
2023/12/18 10:29:35;;;;;;;9.35;2.67;;;19.40;51.50;;;;;;5052250;28;20048;-69
2023/12/18 10:32:01;;;;;;;7.70;3.00;;;19.40;51.90;;;;;;5087972;28;20442;-73
2023/12/18 10:34:27;;;;;;;9.70;2.53;;;19.40;52.00;;;;;;5054941;28;20129;-73
2023/12/18 10:36:55;;;;;;;6.93;2.65;;;19.30;52.00;;;;;;5086970;28;20056;-70
2023/12/18 10:39:22;;;;;;;8.38;2.15;;;19.30;52.00;;;;;;5052007;28;20048;-70
2023/12/18 10:41:57;;;;;;;7.03;2.00;;;19.40;52.00;;;;;;5053938;28;20072;-69
2023/12/18 10:44:24;;;;;;;4.82;2.08;;;19.30;52.00;;;;;;5069959;28;20071;-71
2023/12/18 10:46:50;;;;;;;4.90;2.20;;;19.40;52.00;;;;;;5084303;28;20033;-70
2023/12/18 10:49:18;;;;;;;5.75;2.58;;;19.40;52.00;;;;;;5051729;28;21541;-70
2023/12/18 10:51:45;;;;;;;6.45;2.70;;;19.40;51.80;;;;;;5052774;28;20074;-70
2023/12/18 10:54:12;;;;;;;7.65;2.10;;;19.40;51.60;;;;;;5051958;28;20040;-71
2023/12/18 10:56:39;;;;;;;4.25;1.95;;;19.50;51.60;;;;;;5082366;28;20512;-70
2023/12/18 10:59:07;;;;;;;3.92;2.15;;;19.50;51.50;;;;;;5042379;28;20083;-71
2023/12/18 11:01:34;;;;;;;3.75;1.92;;;19.50;51.50;;;;;;5053881;28;20132;-70
2023/12/18 11:04:01;;;;;;;6.88;1.50;;;19.50;51.40;;;;;;5050662;28;20132;-67
2023/12/18 11:06:28;;;;;;;4.38;1.92;;;19.60;51.40;;;;;;5054842;28;20429;-70
2023/12/18 11:08:54;;;;;;;10.88;2.47;;;19.60;51.50;;;;;;5059144;28;20068;-72
2023/12/18 11:11:24;;;;;;;4.68;2.30;;;19.60;51.50;;;;;;5057614;28;20050;-68
2023/12/18 11:14:14;;;;;;;4.65;2.15;;;19.70;51.70;;;;;;5085423;28;20055;-73
2023/12/18 11:22:16;;;;;;;6.53;3.35;;;19.60;51.80;;;;;;5116311;27;20410;-65
2023/12/18 11:24:45;;;;;;;10.43;4.80;;;19.60;51.70;;;;;;5111206;28;20035;-66
2023/12/18 11:27:12;;;;;;;8.02;4.47;;;19.60;51.40;;;;;;5109543;28;20075;-72
2023/12/18 11:32:42;;;;;;;7.10;4.50;;;19.50;51.30;;;;;;5074156;28;20390;-66
2023/12/18 11:35:10;;;;;;;8.60;4.88;;;19.50;51.00;;;;;;5066348;28;20369;-66
2023/12/18 11:37:51;;;;;;;7.15;4.50;;;19.50;50.90;;;;;;5081644;28;20032;-65
2023/12/18 11:43:32;;;;;;;11.50;5.47;;;19.50;50.70;;;;;;5076162;27;20385;-65
2023/12/18 11:46:00;;;;;;;8.68;3.50;;;19.50;50.50;;;;;;5069176;28;20549;-66
2023/12/18 11:48:26;;;;;;;5.80;3.17;;;19.50;50.40;;;;;;5068927;28;20051;-71
2023/12/18 11:50:51;;;;;;;5.45;3.38;;;19.60;50.30;;;;;;5062964;28;20379;-66
2023/12/18 11:53:32;;;;;;;7.47;3.30;;;19.70;50.50;;;;;;5061339;28;20037;-67
2023/12/18 11:55:58;;;;;;;;;;;19.80;50.00;;;;;;5047290;28;20076;-69
2023/12/18 11:58:25;;;;;;;7.18;2.20;;;19.90;49.90;;;;;;5046586;28;20012;-70
2023/12/18 12:00:52;;;;;;;3.22;1.90;;;20.20;50.60;;;;;;5048760;28;20033;-69
2023/12/18 12:03:18;;;;;;;19.35;2.83;;;20.80;49.10;;;;;;5041201;28;20041;-66
2023/12/18 12:05:45;;;;;;;5.35;2.38;;;21.60;47.80;;;;;;5055274;28;20353;-67
2023/12/18 12:08:12;;;;;;;5.40;1.73;;;22.30;46.40;;;;;;5061478;28;21008;-77
2023/12/18 12:10:45;;;;;;;9.10;1.63;;;22.90;45.10;;;;;;5047535;28;20052;-67
2023/12/18 12:13:27;;;;;;;5.97;1.30;;;23.30;44.20;;;;;;5048668;28;20534;-67
2023/12/18 12:18:43;;;;;;;4.88;1.30;;;23.80;43.00;;;;;;5061117;27;20437;-71
2023/12/18 12:21:11;;;;;;;4.30;2.42;;;24.10;42.60;;;;;;5084916;28;20091;-79
2023/12/18 12:23:37;;;;;;;7.32;2.03;;;24.20;42.10;;;;;;5037771;28;20095;-81
2023/12/18 12:26:04;;;;;;;7.07;1.73;;;24.20;41.90;;;;;;5053452;28;20423;-66
2023/12/18 12:28:31;;;;;;;5.57;1.15;;;24.30;42.10;;;;;;5051656;28;20487;-70
2023/12/18 12:30:57;;;;;;;5.43;1.48;;;24.60;42.40;;;;;;5086351;28;20115;-67
2023/12/18 12:33:23;;;;;;;7.68;1.70;;;24.90;41.40;;;;;;5058859;28;20049;-77
2023/12/18 12:35:48;;;;;;;4.65;1.30;;;25.20;40.90;;;;;;5049576;28;20040;-76
2023/12/18 12:38:16;;;;;;;7.55;1.35;;;25.20;40.30;;;;;;5051389;28;20040;-71
2023/12/18 12:40:44;;;;;;;3.92;1.30;;;24.90;40.30;;;;;;5058388;28;20183;-68
2023/12/18 12:43:11;;;;;;;3.92;1.27;;;24.70;40.60;;;;;;5054944;28;20056;-67
2023/12/18 12:45:42;;;;;;;3.05;0.80;;;24.40;41.00;;;;;;5055336;28;20047;-73
2023/12/18 12:48:09;;;;;;;2.90;0.93;;;24.10;41.30;;;;;;5057268;28;20272;-67
2023/12/18 12:50:37;;;;;;;5.47;1.35;;;23.90;41.70;;;;;;5054692;28;20167;-68
2023/12/18 12:53:09;;;;;;;3.00;1.05;;;23.70;42.00;;;;;;5049131;28;20131;-74
2023/12/18 12:55:36;;;;;;;5.30;1.58;;;23.60;42.30;;;;;;5053029;28;20049;-68
2023/12/18 12:58:03;;;;;;;1.75;1.00;;;23.50;42.60;;;;;;5057752;28;20062;-70